<?xml version="1.0" encoding="UTF-8" standalone="no" ?>
<gpx xmlns="http://www.topografix.com/GPX/1/1" xmlns:xsi="http://www.w3.org/2001/XMLSchema-instance" xsi:schemaLocation="http://www.topografix.com/GPX/1/1 http://www.topografix.com/GPX/1/1/gpx.xsd" version="1.1" creator="VisuGPX - https://www.visugpx.com">
  <metadata>
    <name>Champmajour - Saint Pierre le Déchausselat</name>
    <desc><![CDATA[Beauté des paysages, douceur du grès des hameaux, situation et habitat adaptés à l'environnement.]]></desc>
  </metadata>
  <trk>
    <name><![CDATA[st pierre]]></name>
    <desc><![CDATA[<p>Heure de départ: 10/31/2017 13:29<br/>Heure d'arrivée: 10/31/2017 17:03<br/>Distance: 9 km (03:33)<br/>Temps déplacement: 02:05<br/>Vitesse moyenne: 2,53 km/h<br/>Vitesse moyenne mouv.: 4,29 km/h<br/>Vitesse Max.: 5,46 km/h<br/>Altitude minimale: 218 m<br/>Altitude maximale: 469 m<br/>Vitesse de montée: 228,2 m/h<br/>Vitesse de descente: -281,3 m/h<br/>Gain d'altitude: 386 m<br/>Perte d'altitude: -441 m<br/>Temps de montée: 01:41<br/>Temps de descente: 01:34<br/></p><hr align="center" width="480" style="height: 2px; width: 517px"/>]]></desc>
    <trkseg>
      <trkpt lat="44.44871" lon="4.12588">
        <ele>229.69</ele>
        <time>2017-10-31T12:29:32Z</time>
      </trkpt>
      <trkpt lat="44.44853" lon="4.12586">
        <ele>231.69</ele>
        <time>2017-10-31T12:32:29Z</time>
      </trkpt>
      <trkpt lat="44.44836" lon="4.12597">
        <ele>231.69</ele>
        <time>2017-10-31T12:32:48Z</time>
      </trkpt>
      <trkpt lat="44.44817" lon="4.126">
        <ele>230.72</ele>
        <time>2017-10-31T12:33:07Z</time>
      </trkpt>
      <trkpt lat="44.44799" lon="4.12597">
        <ele>226.79</ele>
        <time>2017-10-31T12:33:24Z</time>
      </trkpt>
      <trkpt lat="44.44781" lon="4.12589">
        <ele>223.69</ele>
        <time>2017-10-31T12:33:40Z</time>
      </trkpt>
      <trkpt lat="44.44764" lon="4.12578">
        <ele>221.72</ele>
        <time>2017-10-31T12:33:57Z</time>
      </trkpt>
      <trkpt lat="44.44749" lon="4.12564">
        <ele>219.7</ele>
        <time>2017-10-31T12:34:11Z</time>
      </trkpt>
      <trkpt lat="44.44734" lon="4.12548">
        <ele>218.69</ele>
        <time>2017-10-31T12:34:28Z</time>
      </trkpt>
      <trkpt lat="44.44719" lon="4.12534">
        <ele>219.66</ele>
        <time>2017-10-31T12:34:45Z</time>
      </trkpt>
      <trkpt lat="44.44704" lon="4.12521">
        <ele>219.78</ele>
        <time>2017-10-31T12:35:00Z</time>
      </trkpt>
      <trkpt lat="44.44686" lon="4.12509">
        <ele>219.7</ele>
        <time>2017-10-31T12:35:16Z</time>
      </trkpt>
      <trkpt lat="44.4467" lon="4.12497">
        <ele>221.66</ele>
        <time>2017-10-31T12:35:30Z</time>
      </trkpt>
      <trkpt lat="44.44652" lon="4.12492">
        <ele>223.68</ele>
        <time>2017-10-31T12:35:45Z</time>
      </trkpt>
      <trkpt lat="44.44635" lon="4.12483">
        <ele>224.69</ele>
        <time>2017-10-31T12:36:00Z</time>
      </trkpt>
      <trkpt lat="44.44621" lon="4.12467">
        <ele>224.78</ele>
        <time>2017-10-31T12:36:15Z</time>
      </trkpt>
      <trkpt lat="44.44605" lon="4.12453">
        <ele>224.63</ele>
        <time>2017-10-31T12:36:30Z</time>
      </trkpt>
      <trkpt lat="44.44591" lon="4.12435">
        <ele>224.69</ele>
        <time>2017-10-31T12:36:46Z</time>
      </trkpt>
      <trkpt lat="44.44593" lon="4.1241">
        <ele>223</ele>
        <time>2017-10-31T12:37:02Z</time>
      </trkpt>
      <trkpt lat="44.44603" lon="4.12389">
        <ele>224.37</ele>
        <time>2017-10-31T12:37:17Z</time>
      </trkpt>
      <trkpt lat="44.44614" lon="4.12368">
        <ele>225.59</ele>
        <time>2017-10-31T12:37:33Z</time>
      </trkpt>
      <trkpt lat="44.44621" lon="4.12343">
        <ele>225.78</ele>
        <time>2017-10-31T12:37:49Z</time>
      </trkpt>
      <trkpt lat="44.44629" lon="4.1232">
        <ele>225.69</ele>
        <time>2017-10-31T12:38:04Z</time>
      </trkpt>
      <trkpt lat="44.4464" lon="4.123">
        <ele>222.69</ele>
        <time>2017-10-31T12:38:19Z</time>
      </trkpt>
      <trkpt lat="44.44653" lon="4.12281">
        <ele>223.69</ele>
        <time>2017-10-31T12:38:36Z</time>
      </trkpt>
      <trkpt lat="44.44665" lon="4.12261">
        <ele>225.69</ele>
        <time>2017-10-31T12:38:51Z</time>
      </trkpt>
      <trkpt lat="44.44682" lon="4.12249">
        <ele>224.71</ele>
        <time>2017-10-31T12:39:07Z</time>
      </trkpt>
      <trkpt lat="44.447" lon="4.1224">
        <ele>224.69</ele>
        <time>2017-10-31T12:39:24Z</time>
      </trkpt>
      <trkpt lat="44.44713" lon="4.12223">
        <ele>227.59</ele>
        <time>2017-10-31T12:39:41Z</time>
      </trkpt>
      <trkpt lat="44.44728" lon="4.12208">
        <ele>229.69</ele>
        <time>2017-10-31T12:39:57Z</time>
      </trkpt>
      <trkpt lat="44.44745" lon="4.12197">
        <ele>229.75</ele>
        <time>2017-10-31T12:40:14Z</time>
      </trkpt>
      <trkpt lat="44.44759" lon="4.12181">
        <ele>234.68</ele>
        <time>2017-10-31T12:40:29Z</time>
      </trkpt>
      <trkpt lat="44.44772" lon="4.12162">
        <ele>239.6</ele>
        <time>2017-10-31T12:40:47Z</time>
      </trkpt>
      <trkpt lat="44.44786" lon="4.12144">
        <ele>240.99</ele>
        <time>2017-10-31T12:41:03Z</time>
      </trkpt>
      <trkpt lat="44.44798" lon="4.12123">
        <ele>242.69</ele>
        <time>2017-10-31T12:41:20Z</time>
      </trkpt>
      <trkpt lat="44.44809" lon="4.12102">
        <ele>244.69</ele>
        <time>2017-10-31T12:41:35Z</time>
      </trkpt>
      <trkpt lat="44.44821" lon="4.12082">
        <ele>244.6</ele>
        <time>2017-10-31T12:41:50Z</time>
      </trkpt>
      <trkpt lat="44.44834" lon="4.12062">
        <ele>244.78</ele>
        <time>2017-10-31T12:42:07Z</time>
      </trkpt>
      <trkpt lat="44.44848" lon="4.12046">
        <ele>248.6</ele>
        <time>2017-10-31T12:42:25Z</time>
      </trkpt>
      <trkpt lat="44.44861" lon="4.12029">
        <ele>248.69</ele>
        <time>2017-10-31T12:42:44Z</time>
      </trkpt>
      <trkpt lat="44.44869" lon="4.12005">
        <ele>248.36</ele>
        <time>2017-10-31T12:43:02Z</time>
      </trkpt>
      <trkpt lat="44.44871" lon="4.11979">
        <ele>250.99</ele>
        <time>2017-10-31T12:43:20Z</time>
      </trkpt>
      <trkpt lat="44.44884" lon="4.1196">
        <ele>250.68</ele>
        <time>2017-10-31T12:43:39Z</time>
      </trkpt>
      <trkpt lat="44.44899" lon="4.11944">
        <ele>248.69</ele>
        <time>2017-10-31T12:43:57Z</time>
      </trkpt>
      <trkpt lat="44.44882" lon="4.11934">
        <ele>249.4</ele>
        <time>2017-10-31T12:44:29Z</time>
      </trkpt>
      <trkpt lat="44.44864" lon="4.11945">
        <ele>248.69</ele>
        <time>2017-10-31T12:44:45Z</time>
      </trkpt>
      <trkpt lat="44.44847" lon="4.11954">
        <ele>249.6</ele>
        <time>2017-10-31T12:45:02Z</time>
      </trkpt>
      <trkpt lat="44.4483" lon="4.11962">
        <ele>247.99</ele>
        <time>2017-10-31T12:45:17Z</time>
      </trkpt>
      <trkpt lat="44.44814" lon="4.11974">
        <ele>245.71</ele>
        <time>2017-10-31T12:45:33Z</time>
      </trkpt>
      <trkpt lat="44.44797" lon="4.11983">
        <ele>244.7</ele>
        <time>2017-10-31T12:45:50Z</time>
      </trkpt>
      <trkpt lat="44.4478" lon="4.11993">
        <ele>242.72</ele>
        <time>2017-10-31T12:46:05Z</time>
      </trkpt>
      <trkpt lat="44.44763" lon="4.12002">
        <ele>243.6</ele>
        <time>2017-10-31T12:46:21Z</time>
      </trkpt>
      <trkpt lat="44.44745" lon="4.12005">
        <ele>245.69</ele>
        <time>2017-10-31T12:46:37Z</time>
      </trkpt>
      <trkpt lat="44.44726" lon="4.12004">
        <ele>244.69</ele>
        <time>2017-10-31T12:46:52Z</time>
      </trkpt>
      <trkpt lat="44.44708" lon="4.12005">
        <ele>245.6</ele>
        <time>2017-10-31T12:47:07Z</time>
      </trkpt>
      <trkpt lat="44.44688" lon="4.12006">
        <ele>242.69</ele>
        <time>2017-10-31T12:47:23Z</time>
      </trkpt>
      <trkpt lat="44.4467" lon="4.12006">
        <ele>244.69</ele>
        <time>2017-10-31T12:47:40Z</time>
      </trkpt>
      <trkpt lat="44.44651" lon="4.12013">
        <ele>243.7</ele>
        <time>2017-10-31T12:47:55Z</time>
      </trkpt>
      <trkpt lat="44.44632" lon="4.12017">
        <ele>243.75</ele>
        <time>2017-10-31T12:48:11Z</time>
      </trkpt>
      <trkpt lat="44.44614" lon="4.1202">
        <ele>246.38</ele>
        <time>2017-10-31T12:48:26Z</time>
      </trkpt>
      <trkpt lat="44.44597" lon="4.12025">
        <ele>247.68</ele>
        <time>2017-10-31T12:48:44Z</time>
      </trkpt>
      <trkpt lat="44.44578" lon="4.12032">
        <ele>249.68</ele>
        <time>2017-10-31T12:48:59Z</time>
      </trkpt>
      <trkpt lat="44.44561" lon="4.12038">
        <ele>248.7</ele>
        <time>2017-10-31T12:49:15Z</time>
      </trkpt>
      <trkpt lat="44.44544" lon="4.12048">
        <ele>249.69</ele>
        <time>2017-10-31T12:49:32Z</time>
      </trkpt>
      <trkpt lat="44.44525" lon="4.12057">
        <ele>248.69</ele>
        <time>2017-10-31T12:49:53Z</time>
      </trkpt>
      <trkpt lat="44.44506" lon="4.12061">
        <ele>245.99</ele>
        <time>2017-10-31T12:50:09Z</time>
      </trkpt>
      <trkpt lat="44.44488" lon="4.12056">
        <ele>245.49</ele>
        <time>2017-10-31T12:50:25Z</time>
      </trkpt>
      <trkpt lat="44.44473" lon="4.12039">
        <ele>242.02</ele>
        <time>2017-10-31T12:50:44Z</time>
      </trkpt>
      <trkpt lat="44.44458" lon="4.12026">
        <ele>240.69</ele>
        <time>2017-10-31T12:50:58Z</time>
      </trkpt>
      <trkpt lat="44.44442" lon="4.12011">
        <ele>239.69</ele>
        <time>2017-10-31T12:51:14Z</time>
      </trkpt>
      <trkpt lat="44.44433" lon="4.11988">
        <ele>245.36</ele>
        <time>2017-10-31T12:51:30Z</time>
      </trkpt>
      <trkpt lat="44.44432" lon="4.11963">
        <ele>249.45</ele>
        <time>2017-10-31T12:51:46Z</time>
      </trkpt>
      <trkpt lat="44.44432" lon="4.11936">
        <ele>251.6</ele>
        <time>2017-10-31T12:52:02Z</time>
      </trkpt>
      <trkpt lat="44.44433" lon="4.1191">
        <ele>251.39</ele>
        <time>2017-10-31T12:52:18Z</time>
      </trkpt>
      <trkpt lat="44.44429" lon="4.11884">
        <ele>252.77</ele>
        <time>2017-10-31T12:52:36Z</time>
      </trkpt>
      <trkpt lat="44.44432" lon="4.11859">
        <ele>253</ele>
        <time>2017-10-31T12:52:51Z</time>
      </trkpt>
      <trkpt lat="44.44433" lon="4.11833">
        <ele>252.69</ele>
        <time>2017-10-31T12:53:07Z</time>
      </trkpt>
      <trkpt lat="44.44439" lon="4.11808">
        <ele>250.72</ele>
        <time>2017-10-31T12:53:21Z</time>
      </trkpt>
      <trkpt lat="44.44441" lon="4.11782">
        <ele>251.69</ele>
        <time>2017-10-31T12:53:38Z</time>
      </trkpt>
      <trkpt lat="44.44447" lon="4.11757">
        <ele>247.72</ele>
        <time>2017-10-31T12:53:53Z</time>
      </trkpt>
      <trkpt lat="44.44453" lon="4.11732">
        <ele>240.78</ele>
        <time>2017-10-31T12:54:11Z</time>
      </trkpt>
      <trkpt lat="44.44459" lon="4.11708">
        <ele>238.78</ele>
        <time>2017-10-31T12:54:28Z</time>
      </trkpt>
      <trkpt lat="44.44463" lon="4.11683">
        <ele>242.57</ele>
        <time>2017-10-31T12:54:42Z</time>
      </trkpt>
      <trkpt lat="44.44471" lon="4.1166">
        <ele>243.6</ele>
        <time>2017-10-31T12:54:58Z</time>
      </trkpt>
      <trkpt lat="44.44477" lon="4.11635">
        <ele>246.36</ele>
        <time>2017-10-31T12:55:15Z</time>
      </trkpt>
      <trkpt lat="44.44489" lon="4.11614">
        <ele>247.63</ele>
        <time>2017-10-31T12:55:32Z</time>
      </trkpt>
      <trkpt lat="44.44505" lon="4.11604">
        <ele>243.99</ele>
        <time>2017-10-31T12:55:48Z</time>
      </trkpt>
      <trkpt lat="44.44521" lon="4.11588">
        <ele>242.72</ele>
        <time>2017-10-31T12:56:06Z</time>
      </trkpt>
      <trkpt lat="44.44537" lon="4.11576">
        <ele>242.91</ele>
        <time>2017-10-31T12:56:22Z</time>
      </trkpt>
      <trkpt lat="44.44555" lon="4.11571">
        <ele>243.69</ele>
        <time>2017-10-31T12:56:42Z</time>
      </trkpt>
      <trkpt lat="44.44573" lon="4.11565">
        <ele>244.6</ele>
        <time>2017-10-31T12:57:09Z</time>
      </trkpt>
      <trkpt lat="44.44589" lon="4.11553">
        <ele>246.62</ele>
        <time>2017-10-31T12:57:30Z</time>
      </trkpt>
      <trkpt lat="44.44607" lon="4.11554">
        <ele>246.77</ele>
        <time>2017-10-31T12:57:52Z</time>
      </trkpt>
      <trkpt lat="44.44626" lon="4.11553">
        <ele>244.7</ele>
        <time>2017-10-31T12:58:16Z</time>
      </trkpt>
      <trkpt lat="44.44643" lon="4.11545">
        <ele>241.99</ele>
        <time>2017-10-31T12:58:34Z</time>
      </trkpt>
      <trkpt lat="44.44661" lon="4.11548">
        <ele>241.9</ele>
        <time>2017-10-31T12:58:57Z</time>
      </trkpt>
      <trkpt lat="44.44676" lon="4.11533">
        <ele>240.66</ele>
        <time>2017-10-31T12:59:14Z</time>
      </trkpt>
      <trkpt lat="44.44689" lon="4.11514">
        <ele>244.66</ele>
        <time>2017-10-31T12:59:28Z</time>
      </trkpt>
      <trkpt lat="44.44704" lon="4.115">
        <ele>245.69</ele>
        <time>2017-10-31T12:59:42Z</time>
      </trkpt>
      <trkpt lat="44.44721" lon="4.11484">
        <ele>250.3</ele>
        <time>2017-10-31T13:00:02Z</time>
      </trkpt>
      <trkpt lat="44.44732" lon="4.11463">
        <ele>258.69</ele>
        <time>2017-10-31T13:00:22Z</time>
      </trkpt>
      <trkpt lat="44.44743" lon="4.11441">
        <ele>258.69</ele>
        <time>2017-10-31T13:00:39Z</time>
      </trkpt>
      <trkpt lat="44.44752" lon="4.11419">
        <ele>254.7</ele>
        <time>2017-10-31T13:00:59Z</time>
      </trkpt>
      <trkpt lat="44.44764" lon="4.11399">
        <ele>253.69</ele>
        <time>2017-10-31T13:01:17Z</time>
      </trkpt>
      <trkpt lat="44.4478" lon="4.11384">
        <ele>248.79</ele>
        <time>2017-10-31T13:01:35Z</time>
      </trkpt>
      <trkpt lat="44.44787" lon="4.11361">
        <ele>246.69</ele>
        <time>2017-10-31T13:01:55Z</time>
      </trkpt>
      <trkpt lat="44.44785" lon="4.11335">
        <ele>259.56</ele>
        <time>2017-10-31T13:02:10Z</time>
      </trkpt>
      <trkpt lat="44.44777" lon="4.11312">
        <ele>260.69</ele>
        <time>2017-10-31T13:02:31Z</time>
      </trkpt>
      <trkpt lat="44.44778" lon="4.11286">
        <ele>257.72</ele>
        <time>2017-10-31T13:02:53Z</time>
      </trkpt>
      <trkpt lat="44.44796" lon="4.11293">
        <ele>257.69</ele>
        <time>2017-10-31T13:03:16Z</time>
      </trkpt>
      <trkpt lat="44.44812" lon="4.11278">
        <ele>255.69</ele>
        <time>2017-10-31T13:03:34Z</time>
      </trkpt>
      <trkpt lat="44.44828" lon="4.11265">
        <ele>255.78</ele>
        <time>2017-10-31T13:03:53Z</time>
      </trkpt>
      <trkpt lat="44.44844" lon="4.11253">
        <ele>256.6</ele>
        <time>2017-10-31T13:04:09Z</time>
      </trkpt>
      <trkpt lat="44.44862" lon="4.11246">
        <ele>258.39</ele>
        <time>2017-10-31T13:04:30Z</time>
      </trkpt>
      <trkpt lat="44.44873" lon="4.11225">
        <ele>266.18</ele>
        <time>2017-10-31T13:04:45Z</time>
      </trkpt>
      <trkpt lat="44.44885" lon="4.11204">
        <ele>269.39</ele>
        <time>2017-10-31T13:05:02Z</time>
      </trkpt>
      <trkpt lat="44.44888" lon="4.1123">
        <ele>270.68</ele>
        <time>2017-10-31T13:05:43Z</time>
      </trkpt>
      <trkpt lat="44.44881" lon="4.11253">
        <ele>277.68</ele>
        <time>2017-10-31T13:05:58Z</time>
      </trkpt>
      <trkpt lat="44.44895" lon="4.11234">
        <ele>274.69</ele>
        <time>2017-10-31T13:06:27Z</time>
      </trkpt>
      <trkpt lat="44.44906" lon="4.11213">
        <ele>277.99</ele>
        <time>2017-10-31T13:06:45Z</time>
      </trkpt>
      <trkpt lat="44.44918" lon="4.11193">
        <ele>277.7</ele>
        <time>2017-10-31T13:07:07Z</time>
      </trkpt>
      <trkpt lat="44.44928" lon="4.1117">
        <ele>277.69</ele>
        <time>2017-10-31T13:07:25Z</time>
      </trkpt>
      <trkpt lat="44.44934" lon="4.11146">
        <ele>276.7</ele>
        <time>2017-10-31T13:07:44Z</time>
      </trkpt>
      <trkpt lat="44.4494" lon="4.11121">
        <ele>279.6</ele>
        <time>2017-10-31T13:08:02Z</time>
      </trkpt>
      <trkpt lat="44.44943" lon="4.11095">
        <ele>279.66</ele>
        <time>2017-10-31T13:08:25Z</time>
      </trkpt>
      <trkpt lat="44.44945" lon="4.11069">
        <ele>277.7</ele>
        <time>2017-10-31T13:08:44Z</time>
      </trkpt>
      <trkpt lat="44.44948" lon="4.11044">
        <ele>276.67</ele>
        <time>2017-10-31T13:09:02Z</time>
      </trkpt>
      <trkpt lat="44.44963" lon="4.11059">
        <ele>292.69</ele>
        <time>2017-10-31T13:16:30Z</time>
      </trkpt>
      <trkpt lat="44.4497" lon="4.11083">
        <ele>295.69</ele>
        <time>2017-10-31T13:16:53Z</time>
      </trkpt>
      <trkpt lat="44.44966" lon="4.11108">
        <ele>296.69</ele>
        <time>2017-10-31T13:17:15Z</time>
      </trkpt>
      <trkpt lat="44.44976" lon="4.11086">
        <ele>299.66</ele>
        <time>2017-10-31T13:17:41Z</time>
      </trkpt>
      <trkpt lat="44.44973" lon="4.11061">
        <ele>300.67</ele>
        <time>2017-10-31T13:17:59Z</time>
      </trkpt>
      <trkpt lat="44.44971" lon="4.11035">
        <ele>302.39</ele>
        <time>2017-10-31T13:18:17Z</time>
      </trkpt>
      <trkpt lat="44.44968" lon="4.1101">
        <ele>301.69</ele>
        <time>2017-10-31T13:18:37Z</time>
      </trkpt>
      <trkpt lat="44.44965" lon="4.10984">
        <ele>300.69</ele>
        <time>2017-10-31T13:18:56Z</time>
      </trkpt>
      <trkpt lat="44.44961" lon="4.10957">
        <ele>304.69</ele>
        <time>2017-10-31T13:19:15Z</time>
      </trkpt>
      <trkpt lat="44.4496" lon="4.10931">
        <ele>308.69</ele>
        <time>2017-10-31T13:19:36Z</time>
      </trkpt>
      <trkpt lat="44.44959" lon="4.10905">
        <ele>310.99</ele>
        <time>2017-10-31T13:19:56Z</time>
      </trkpt>
      <trkpt lat="44.44955" lon="4.1088">
        <ele>310.69</ele>
        <time>2017-10-31T13:20:13Z</time>
      </trkpt>
      <trkpt lat="44.4496" lon="4.10855">
        <ele>313.99</ele>
        <time>2017-10-31T13:20:33Z</time>
      </trkpt>
      <trkpt lat="44.44976" lon="4.10841">
        <ele>306.08</ele>
        <time>2017-10-31T13:20:57Z</time>
      </trkpt>
      <trkpt lat="44.44994" lon="4.10837">
        <ele>302.69</ele>
        <time>2017-10-31T13:21:15Z</time>
      </trkpt>
      <trkpt lat="44.45012" lon="4.10838">
        <ele>300.78</ele>
        <time>2017-10-31T13:21:35Z</time>
      </trkpt>
      <trkpt lat="44.45028" lon="4.10849">
        <ele>302.9</ele>
        <time>2017-10-31T13:21:54Z</time>
      </trkpt>
      <trkpt lat="44.45044" lon="4.1086">
        <ele>306.66</ele>
        <time>2017-10-31T13:22:17Z</time>
      </trkpt>
      <trkpt lat="44.45058" lon="4.10844">
        <ele>308.72</ele>
        <time>2017-10-31T13:23:59Z</time>
      </trkpt>
      <trkpt lat="44.45062" lon="4.10816">
        <ele>344.69</ele>
        <time>2017-10-31T13:24:36Z</time>
      </trkpt>
      <trkpt lat="44.4508" lon="4.10824">
        <ele>295.97</ele>
        <time>2017-10-31T13:24:38Z</time>
      </trkpt>
      <trkpt lat="44.45084" lon="4.10798">
        <ele>306.99</ele>
        <time>2017-10-31T13:25:38Z</time>
      </trkpt>
      <trkpt lat="44.45092" lon="4.10775">
        <ele>304.4</ele>
        <time>2017-10-31T13:26:05Z</time>
      </trkpt>
      <trkpt lat="44.45097" lon="4.1075">
        <ele>296.03</ele>
        <time>2017-10-31T13:26:34Z</time>
      </trkpt>
      <trkpt lat="44.45107" lon="4.10729">
        <ele>288.69</ele>
        <time>2017-10-31T13:27:05Z</time>
      </trkpt>
      <trkpt lat="44.45099" lon="4.10706">
        <ele>295.72</ele>
        <time>2017-10-31T13:27:40Z</time>
      </trkpt>
      <trkpt lat="44.45089" lon="4.10684">
        <ele>294.69</ele>
        <time>2017-10-31T13:28:38Z</time>
      </trkpt>
      <trkpt lat="44.45087" lon="4.10681">
        <ele>300.69</ele>
        <time>2017-10-31T13:28:59Z</time>
      </trkpt>
      <trkpt lat="44.45104" lon="4.10671">
        <ele>274.99</ele>
        <time>2017-10-31T13:30:48Z</time>
      </trkpt>
      <trkpt lat="44.45119" lon="4.10656">
        <ele>271.72</ele>
        <time>2017-10-31T13:31:17Z</time>
      </trkpt>
      <trkpt lat="44.45112" lon="4.10632">
        <ele>275.7</ele>
        <time>2017-10-31T13:32:04Z</time>
      </trkpt>
      <trkpt lat="44.45101" lon="4.10611">
        <ele>279.3</ele>
        <time>2017-10-31T13:32:39Z</time>
      </trkpt>
      <trkpt lat="44.45084" lon="4.10603">
        <ele>279.69</ele>
        <time>2017-10-31T13:33:11Z</time>
      </trkpt>
      <trkpt lat="44.45066" lon="4.10594">
        <ele>285.45</ele>
        <time>2017-10-31T13:33:53Z</time>
      </trkpt>
      <trkpt lat="44.45051" lon="4.1058">
        <ele>287.69</ele>
        <time>2017-10-31T13:34:33Z</time>
      </trkpt>
      <trkpt lat="44.45066" lon="4.10564">
        <ele>294.69</ele>
        <time>2017-10-31T13:37:18Z</time>
      </trkpt>
      <trkpt lat="44.45061" lon="4.1054">
        <ele>301.39</ele>
        <time>2017-10-31T13:37:54Z</time>
      </trkpt>
      <trkpt lat="44.45052" lon="4.10517">
        <ele>307.6</ele>
        <time>2017-10-31T13:38:20Z</time>
      </trkpt>
      <trkpt lat="44.45043" lon="4.10492">
        <ele>310.38</ele>
        <time>2017-10-31T13:38:47Z</time>
      </trkpt>
      <trkpt lat="44.45035" lon="4.10468">
        <ele>311.39</ele>
        <time>2017-10-31T13:39:10Z</time>
      </trkpt>
      <trkpt lat="44.45027" lon="4.10445">
        <ele>310.69</ele>
        <time>2017-10-31T13:39:36Z</time>
      </trkpt>
      <trkpt lat="44.45024" lon="4.1042">
        <ele>311.78</ele>
        <time>2017-10-31T13:39:59Z</time>
      </trkpt>
      <trkpt lat="44.45033" lon="4.10397">
        <ele>312.36</ele>
        <time>2017-10-31T13:40:33Z</time>
      </trkpt>
      <trkpt lat="44.45025" lon="4.10374">
        <ele>310.79</ele>
        <time>2017-10-31T13:40:58Z</time>
      </trkpt>
      <trkpt lat="44.45019" lon="4.10349">
        <ele>310.69</ele>
        <time>2017-10-31T13:41:22Z</time>
      </trkpt>
      <trkpt lat="44.45013" lon="4.10324">
        <ele>311.39</ele>
        <time>2017-10-31T13:41:42Z</time>
      </trkpt>
      <trkpt lat="44.45001" lon="4.10305">
        <ele>316.66</ele>
        <time>2017-10-31T13:42:46Z</time>
      </trkpt>
      <trkpt lat="44.44998" lon="4.10279">
        <ele>308.78</ele>
        <time>2017-10-31T13:43:21Z</time>
      </trkpt>
      <trkpt lat="44.44995" lon="4.10252">
        <ele>306.7</ele>
        <time>2017-10-31T13:43:50Z</time>
      </trkpt>
      <trkpt lat="44.44992" lon="4.10226">
        <ele>306.9</ele>
        <time>2017-10-31T13:44:16Z</time>
      </trkpt>
      <trkpt lat="44.44985" lon="4.10202">
        <ele>306.02</ele>
        <time>2017-10-31T13:44:42Z</time>
      </trkpt>
      <trkpt lat="44.44979" lon="4.10178">
        <ele>301.99</ele>
        <time>2017-10-31T13:45:16Z</time>
      </trkpt>
      <trkpt lat="44.44976" lon="4.10152">
        <ele>295.7</ele>
        <time>2017-10-31T13:45:40Z</time>
      </trkpt>
      <trkpt lat="44.44968" lon="4.1013">
        <ele>294.69</ele>
        <time>2017-10-31T13:46:03Z</time>
      </trkpt>
      <trkpt lat="44.44974" lon="4.10153">
        <ele>300.7</ele>
        <time>2017-10-31T13:48:45Z</time>
      </trkpt>
      <trkpt lat="44.4498" lon="4.1018">
        <ele>300.69</ele>
        <time>2017-10-31T13:49:12Z</time>
      </trkpt>
      <trkpt lat="44.44989" lon="4.10203">
        <ele>301.99</ele>
        <time>2017-10-31T13:49:33Z</time>
      </trkpt>
      <trkpt lat="44.44995" lon="4.10227">
        <ele>305.66</ele>
        <time>2017-10-31T13:49:58Z</time>
      </trkpt>
      <trkpt lat="44.45001" lon="4.10252">
        <ele>310.69</ele>
        <time>2017-10-31T13:50:23Z</time>
      </trkpt>
      <trkpt lat="44.45" lon="4.10278">
        <ele>314.69</ele>
        <time>2017-10-31T13:50:54Z</time>
      </trkpt>
      <trkpt lat="44.45005" lon="4.10304">
        <ele>315.38</ele>
        <time>2017-10-31T13:51:24Z</time>
      </trkpt>
      <trkpt lat="44.45024" lon="4.10302">
        <ele>322.6</ele>
        <time>2017-10-31T13:52:32Z</time>
      </trkpt>
      <trkpt lat="44.45034" lon="4.10325">
        <ele>327.69</ele>
        <time>2017-10-31T13:53:02Z</time>
      </trkpt>
      <trkpt lat="44.45048" lon="4.10342">
        <ele>332.66</ele>
        <time>2017-10-31T13:53:30Z</time>
      </trkpt>
      <trkpt lat="44.45064" lon="4.10355">
        <ele>333.87</ele>
        <time>2017-10-31T13:53:54Z</time>
      </trkpt>
      <trkpt lat="44.45084" lon="4.10351">
        <ele>334.69</ele>
        <time>2017-10-31T13:54:24Z</time>
      </trkpt>
      <trkpt lat="44.45101" lon="4.10343">
        <ele>337.6</ele>
        <time>2017-10-31T13:54:48Z</time>
      </trkpt>
      <trkpt lat="44.45119" lon="4.10346">
        <ele>342.69</ele>
        <time>2017-10-31T13:55:23Z</time>
      </trkpt>
      <trkpt lat="44.45137" lon="4.10343">
        <ele>345.41</ele>
        <time>2017-10-31T13:55:44Z</time>
      </trkpt>
      <trkpt lat="44.45156" lon="4.10339">
        <ele>347.69</ele>
        <time>2017-10-31T13:56:09Z</time>
      </trkpt>
      <trkpt lat="44.45169" lon="4.10358">
        <ele>357.69</ele>
        <time>2017-10-31T14:03:07Z</time>
      </trkpt>
      <trkpt lat="44.45183" lon="4.10374">
        <ele>356.72</ele>
        <time>2017-10-31T14:03:24Z</time>
      </trkpt>
      <trkpt lat="44.45194" lon="4.10394">
        <ele>355.69</ele>
        <time>2017-10-31T14:03:44Z</time>
      </trkpt>
      <trkpt lat="44.45207" lon="4.10411">
        <ele>355.99</ele>
        <time>2017-10-31T14:04:00Z</time>
      </trkpt>
      <trkpt lat="44.45223" lon="4.10424">
        <ele>356.69</ele>
        <time>2017-10-31T14:04:16Z</time>
      </trkpt>
      <trkpt lat="44.45241" lon="4.10429">
        <ele>356.96</ele>
        <time>2017-10-31T14:04:32Z</time>
      </trkpt>
      <trkpt lat="44.45258" lon="4.10436">
        <ele>354.78</ele>
        <time>2017-10-31T14:04:48Z</time>
      </trkpt>
      <trkpt lat="44.45276" lon="4.10445">
        <ele>358.61</ele>
        <time>2017-10-31T14:05:07Z</time>
      </trkpt>
      <trkpt lat="44.45294" lon="4.10451">
        <ele>360.38</ele>
        <time>2017-10-31T14:05:23Z</time>
      </trkpt>
      <trkpt lat="44.45312" lon="4.10455">
        <ele>361.69</ele>
        <time>2017-10-31T14:05:39Z</time>
      </trkpt>
      <trkpt lat="44.45331" lon="4.1046">
        <ele>362.69</ele>
        <time>2017-10-31T14:05:57Z</time>
      </trkpt>
      <trkpt lat="44.45348" lon="4.10468">
        <ele>364.6</ele>
        <time>2017-10-31T14:06:15Z</time>
      </trkpt>
      <trkpt lat="44.45365" lon="4.10478">
        <ele>365.69</ele>
        <time>2017-10-31T14:06:33Z</time>
      </trkpt>
      <trkpt lat="44.45383" lon="4.10474">
        <ele>364.69</ele>
        <time>2017-10-31T14:06:51Z</time>
      </trkpt>
      <trkpt lat="44.45401" lon="4.1047">
        <ele>368.56</ele>
        <time>2017-10-31T14:07:07Z</time>
      </trkpt>
      <trkpt lat="44.45419" lon="4.10471">
        <ele>373.99</ele>
        <time>2017-10-31T14:07:26Z</time>
      </trkpt>
      <trkpt lat="44.45437" lon="4.10464">
        <ele>372.69</ele>
        <time>2017-10-31T14:07:43Z</time>
      </trkpt>
      <trkpt lat="44.45456" lon="4.10456">
        <ele>371.69</ele>
        <time>2017-10-31T14:08:01Z</time>
      </trkpt>
      <trkpt lat="44.45474" lon="4.10452">
        <ele>369.69</ele>
        <time>2017-10-31T14:08:21Z</time>
      </trkpt>
      <trkpt lat="44.45492" lon="4.10448">
        <ele>368.69</ele>
        <time>2017-10-31T14:08:37Z</time>
      </trkpt>
      <trkpt lat="44.45509" lon="4.10441">
        <ele>365.78</ele>
        <time>2017-10-31T14:08:53Z</time>
      </trkpt>
      <trkpt lat="44.45527" lon="4.10436">
        <ele>363.69</ele>
        <time>2017-10-31T14:09:13Z</time>
      </trkpt>
      <trkpt lat="44.45545" lon="4.10428">
        <ele>360.9</ele>
        <time>2017-10-31T14:09:28Z</time>
      </trkpt>
      <trkpt lat="44.45564" lon="4.10427">
        <ele>363.69</ele>
        <time>2017-10-31T14:09:46Z</time>
      </trkpt>
      <trkpt lat="44.45582" lon="4.10422">
        <ele>364.69</ele>
        <time>2017-10-31T14:10:01Z</time>
      </trkpt>
      <trkpt lat="44.45599" lon="4.10414">
        <ele>363</ele>
        <time>2017-10-31T14:10:20Z</time>
      </trkpt>
      <trkpt lat="44.4561" lon="4.10435">
        <ele>373.65</ele>
        <time>2017-10-31T14:10:50Z</time>
      </trkpt>
      <trkpt lat="44.45609" lon="4.10461">
        <ele>375.66</ele>
        <time>2017-10-31T14:11:11Z</time>
      </trkpt>
      <trkpt lat="44.45608" lon="4.10487">
        <ele>376.93</ele>
        <time>2017-10-31T14:11:29Z</time>
      </trkpt>
      <trkpt lat="44.45609" lon="4.10512">
        <ele>376.78</ele>
        <time>2017-10-31T14:11:43Z</time>
      </trkpt>
      <trkpt lat="44.45605" lon="4.10538">
        <ele>377.66</ele>
        <time>2017-10-31T14:11:58Z</time>
      </trkpt>
      <trkpt lat="44.45603" lon="4.10563">
        <ele>376.99</ele>
        <time>2017-10-31T14:12:14Z</time>
      </trkpt>
      <trkpt lat="44.456" lon="4.10589">
        <ele>375.78</ele>
        <time>2017-10-31T14:12:31Z</time>
      </trkpt>
      <trkpt lat="44.45591" lon="4.10613">
        <ele>376.69</ele>
        <time>2017-10-31T14:12:46Z</time>
      </trkpt>
      <trkpt lat="44.45584" lon="4.10638">
        <ele>377.69</ele>
        <time>2017-10-31T14:13:02Z</time>
      </trkpt>
      <trkpt lat="44.4558" lon="4.10663">
        <ele>375.72</ele>
        <time>2017-10-31T14:13:18Z</time>
      </trkpt>
      <trkpt lat="44.45575" lon="4.10688">
        <ele>375.69</ele>
        <time>2017-10-31T14:13:34Z</time>
      </trkpt>
      <trkpt lat="44.45569" lon="4.10713">
        <ele>373.99</ele>
        <time>2017-10-31T14:13:50Z</time>
      </trkpt>
      <trkpt lat="44.45563" lon="4.10738">
        <ele>374.69</ele>
        <time>2017-10-31T14:14:05Z</time>
      </trkpt>
      <trkpt lat="44.45555" lon="4.10761">
        <ele>373.69</ele>
        <time>2017-10-31T14:14:21Z</time>
      </trkpt>
      <trkpt lat="44.45548" lon="4.10785">
        <ele>375.4</ele>
        <time>2017-10-31T14:14:37Z</time>
      </trkpt>
      <trkpt lat="44.4554" lon="4.10809">
        <ele>371.99</ele>
        <time>2017-10-31T14:14:55Z</time>
      </trkpt>
      <trkpt lat="44.4553" lon="4.10832">
        <ele>371.69</ele>
        <time>2017-10-31T14:15:12Z</time>
      </trkpt>
      <trkpt lat="44.4552" lon="4.10854">
        <ele>369.78</ele>
        <time>2017-10-31T14:15:29Z</time>
      </trkpt>
      <trkpt lat="44.45508" lon="4.10875">
        <ele>368.91</ele>
        <time>2017-10-31T14:15:45Z</time>
      </trkpt>
      <trkpt lat="44.45498" lon="4.10897">
        <ele>368.66</ele>
        <time>2017-10-31T14:16:02Z</time>
      </trkpt>
      <trkpt lat="44.45482" lon="4.10913">
        <ele>366.99</ele>
        <time>2017-10-31T14:16:21Z</time>
      </trkpt>
      <trkpt lat="44.45466" lon="4.10926">
        <ele>367.66</ele>
        <time>2017-10-31T14:16:36Z</time>
      </trkpt>
      <trkpt lat="44.45449" lon="4.1094">
        <ele>367.6</ele>
        <time>2017-10-31T14:16:52Z</time>
      </trkpt>
      <trkpt lat="44.45431" lon="4.10946">
        <ele>366.69</ele>
        <time>2017-10-31T14:17:10Z</time>
      </trkpt>
      <trkpt lat="44.45415" lon="4.10959">
        <ele>362</ele>
        <time>2017-10-31T14:17:31Z</time>
      </trkpt>
      <trkpt lat="44.45397" lon="4.10969">
        <ele>361.69</ele>
        <time>2017-10-31T14:17:47Z</time>
      </trkpt>
      <trkpt lat="44.45379" lon="4.10977">
        <ele>363.68</ele>
        <time>2017-10-31T14:18:01Z</time>
      </trkpt>
      <trkpt lat="44.45361" lon="4.10986">
        <ele>366.69</ele>
        <time>2017-10-31T14:18:17Z</time>
      </trkpt>
      <trkpt lat="44.45343" lon="4.10994">
        <ele>369.49</ele>
        <time>2017-10-31T14:18:35Z</time>
      </trkpt>
      <trkpt lat="44.45359" lon="4.11003">
        <ele>380.69</ele>
        <time>2017-10-31T14:23:27Z</time>
      </trkpt>
      <trkpt lat="44.45378" lon="4.11006">
        <ele>379.69</ele>
        <time>2017-10-31T14:23:59Z</time>
      </trkpt>
      <trkpt lat="44.45397" lon="4.11006">
        <ele>376.99</ele>
        <time>2017-10-31T14:24:22Z</time>
      </trkpt>
      <trkpt lat="44.45415" lon="4.11003">
        <ele>372.72</ele>
        <time>2017-10-31T14:24:47Z</time>
      </trkpt>
      <trkpt lat="44.45433" lon="4.11002">
        <ele>371.69</ele>
        <time>2017-10-31T14:25:08Z</time>
      </trkpt>
      <trkpt lat="44.45451" lon="4.10993">
        <ele>373.69</ele>
        <time>2017-10-31T14:25:28Z</time>
      </trkpt>
      <trkpt lat="44.45469" lon="4.10985">
        <ele>373.69</ele>
        <time>2017-10-31T14:25:45Z</time>
      </trkpt>
      <trkpt lat="44.45485" lon="4.10974">
        <ele>374.69</ele>
        <time>2017-10-31T14:26:09Z</time>
      </trkpt>
      <trkpt lat="44.455" lon="4.10956">
        <ele>374.39</ele>
        <time>2017-10-31T14:26:31Z</time>
      </trkpt>
      <trkpt lat="44.45514" lon="4.10936">
        <ele>373.7</ele>
        <time>2017-10-31T14:26:55Z</time>
      </trkpt>
      <trkpt lat="44.45532" lon="4.10931">
        <ele>375.39</ele>
        <time>2017-10-31T14:27:30Z</time>
      </trkpt>
      <trkpt lat="44.45541" lon="4.10936">
        <ele>401.69</ele>
        <time>2017-10-31T14:27:46Z</time>
      </trkpt>
      <trkpt lat="44.4556" lon="4.10932">
        <ele>394.69</ele>
        <time>2017-10-31T14:28:49Z</time>
      </trkpt>
      <trkpt lat="44.45576" lon="4.10921">
        <ele>400.68</ele>
        <time>2017-10-31T14:29:18Z</time>
      </trkpt>
      <trkpt lat="44.45591" lon="4.10906">
        <ele>403.69</ele>
        <time>2017-10-31T14:29:38Z</time>
      </trkpt>
      <trkpt lat="44.45606" lon="4.10891">
        <ele>404.48</ele>
        <time>2017-10-31T14:29:59Z</time>
      </trkpt>
      <trkpt lat="44.45621" lon="4.10876">
        <ele>403.69</ele>
        <time>2017-10-31T14:30:22Z</time>
      </trkpt>
      <trkpt lat="44.45636" lon="4.10863">
        <ele>404.69</ele>
        <time>2017-10-31T14:30:47Z</time>
      </trkpt>
      <trkpt lat="44.45653" lon="4.10852">
        <ele>408.67</ele>
        <time>2017-10-31T14:31:11Z</time>
      </trkpt>
      <trkpt lat="44.45669" lon="4.1084">
        <ele>409.69</ele>
        <time>2017-10-31T14:31:37Z</time>
      </trkpt>
      <trkpt lat="44.45683" lon="4.10823">
        <ele>411.68</ele>
        <time>2017-10-31T14:32:03Z</time>
      </trkpt>
      <trkpt lat="44.45697" lon="4.10806">
        <ele>411.69</ele>
        <time>2017-10-31T14:32:25Z</time>
      </trkpt>
      <trkpt lat="44.45708" lon="4.10785">
        <ele>416.66</ele>
        <time>2017-10-31T14:32:47Z</time>
      </trkpt>
      <trkpt lat="44.45714" lon="4.10761">
        <ele>418.9</ele>
        <time>2017-10-31T14:33:08Z</time>
      </trkpt>
      <trkpt lat="44.45717" lon="4.10736">
        <ele>417.78</ele>
        <time>2017-10-31T14:33:32Z</time>
      </trkpt>
      <trkpt lat="44.45723" lon="4.10712">
        <ele>416.99</ele>
        <time>2017-10-31T14:34:02Z</time>
      </trkpt>
      <trkpt lat="44.45738" lon="4.10697">
        <ele>419.69</ele>
        <time>2017-10-31T14:34:45Z</time>
      </trkpt>
      <trkpt lat="44.45748" lon="4.10675">
        <ele>423.36</ele>
        <time>2017-10-31T14:35:08Z</time>
      </trkpt>
      <trkpt lat="44.45767" lon="4.10676">
        <ele>431.38</ele>
        <time>2017-10-31T14:35:45Z</time>
      </trkpt>
      <trkpt lat="44.45781" lon="4.10693">
        <ele>440.66</ele>
        <time>2017-10-31T14:36:12Z</time>
      </trkpt>
      <trkpt lat="44.4579" lon="4.10715">
        <ele>447.39</ele>
        <time>2017-10-31T14:36:43Z</time>
      </trkpt>
      <trkpt lat="44.45791" lon="4.10742">
        <ele>449.69</ele>
        <time>2017-10-31T14:37:09Z</time>
      </trkpt>
      <trkpt lat="44.45792" lon="4.10768">
        <ele>440.69</ele>
        <time>2017-10-31T14:47:45Z</time>
      </trkpt>
      <trkpt lat="44.45795" lon="4.10793">
        <ele>438.69</ele>
        <time>2017-10-31T14:48:07Z</time>
      </trkpt>
      <trkpt lat="44.45796" lon="4.10819">
        <ele>437.69</ele>
        <time>2017-10-31T14:48:26Z</time>
      </trkpt>
      <trkpt lat="44.45793" lon="4.10844">
        <ele>434.7</ele>
        <time>2017-10-31T14:48:45Z</time>
      </trkpt>
      <trkpt lat="44.45789" lon="4.1087">
        <ele>433.69</ele>
        <time>2017-10-31T14:49:04Z</time>
      </trkpt>
      <trkpt lat="44.45783" lon="4.10894">
        <ele>434.39</ele>
        <time>2017-10-31T14:49:22Z</time>
      </trkpt>
      <trkpt lat="44.45771" lon="4.10915">
        <ele>434.69</ele>
        <time>2017-10-31T14:49:39Z</time>
      </trkpt>
      <trkpt lat="44.4576" lon="4.10935">
        <ele>433.48</ele>
        <time>2017-10-31T14:49:56Z</time>
      </trkpt>
      <trkpt lat="44.45748" lon="4.10955">
        <ele>432.69</ele>
        <time>2017-10-31T14:50:13Z</time>
      </trkpt>
      <trkpt lat="44.45736" lon="4.10975">
        <ele>434.69</ele>
        <time>2017-10-31T14:50:30Z</time>
      </trkpt>
      <trkpt lat="44.45726" lon="4.10996">
        <ele>437.69</ele>
        <time>2017-10-31T14:50:49Z</time>
      </trkpt>
      <trkpt lat="44.45716" lon="4.11018">
        <ele>438.66</ele>
        <time>2017-10-31T14:51:07Z</time>
      </trkpt>
      <trkpt lat="44.45702" lon="4.11036">
        <ele>440.66</ele>
        <time>2017-10-31T14:51:25Z</time>
      </trkpt>
      <trkpt lat="44.45691" lon="4.11056">
        <ele>442.66</ele>
        <time>2017-10-31T14:51:42Z</time>
      </trkpt>
      <trkpt lat="44.45684" lon="4.1108">
        <ele>443.96</ele>
        <time>2017-10-31T14:51:58Z</time>
      </trkpt>
      <trkpt lat="44.45675" lon="4.11103">
        <ele>444.72</ele>
        <time>2017-10-31T14:52:17Z</time>
      </trkpt>
      <trkpt lat="44.45663" lon="4.11123">
        <ele>443.7</ele>
        <time>2017-10-31T14:52:34Z</time>
      </trkpt>
      <trkpt lat="44.45655" lon="4.11147">
        <ele>445.39</ele>
        <time>2017-10-31T14:52:50Z</time>
      </trkpt>
      <trkpt lat="44.45648" lon="4.11171">
        <ele>445.69</ele>
        <time>2017-10-31T14:53:08Z</time>
      </trkpt>
      <trkpt lat="44.45637" lon="4.11192">
        <ele>446.39</ele>
        <time>2017-10-31T14:53:27Z</time>
      </trkpt>
      <trkpt lat="44.45626" lon="4.11213">
        <ele>444.99</ele>
        <time>2017-10-31T14:53:46Z</time>
      </trkpt>
      <trkpt lat="44.45616" lon="4.11234">
        <ele>445.39</ele>
        <time>2017-10-31T14:54:02Z</time>
      </trkpt>
      <trkpt lat="44.45603" lon="4.11255">
        <ele>445.69</ele>
        <time>2017-10-31T14:54:21Z</time>
      </trkpt>
      <trkpt lat="44.45589" lon="4.11271">
        <ele>446.69</ele>
        <time>2017-10-31T14:54:40Z</time>
      </trkpt>
      <trkpt lat="44.45571" lon="4.11286">
        <ele>448.39</ele>
        <time>2017-10-31T14:55:00Z</time>
      </trkpt>
      <trkpt lat="44.45556" lon="4.11299">
        <ele>454.91</ele>
        <time>2017-10-31T14:55:26Z</time>
      </trkpt>
      <trkpt lat="44.45556" lon="4.11301">
        <ele>452.69</ele>
        <time>2017-10-31T14:55:35Z</time>
      </trkpt>
      <trkpt lat="44.45539" lon="4.11309">
        <ele>468.59</ele>
        <time>2017-10-31T14:56:09Z</time>
      </trkpt>
      <trkpt lat="44.4552" lon="4.1131">
        <ele>469.67</ele>
        <time>2017-10-31T14:56:28Z</time>
      </trkpt>
      <trkpt lat="44.45502" lon="4.11315">
        <ele>463.98</ele>
        <time>2017-10-31T15:00:57Z</time>
      </trkpt>
      <trkpt lat="44.45486" lon="4.11329">
        <ele>464.08</ele>
        <time>2017-10-31T15:03:55Z</time>
      </trkpt>
      <trkpt lat="44.45469" lon="4.11339">
        <ele>464.39</ele>
        <time>2017-10-31T15:04:17Z</time>
      </trkpt>
      <trkpt lat="44.45456" lon="4.11359">
        <ele>463.69</ele>
        <time>2017-10-31T15:04:37Z</time>
      </trkpt>
      <trkpt lat="44.45441" lon="4.11374">
        <ele>461.99</ele>
        <time>2017-10-31T15:04:55Z</time>
      </trkpt>
      <trkpt lat="44.45422" lon="4.11375">
        <ele>460.69</ele>
        <time>2017-10-31T15:05:12Z</time>
      </trkpt>
      <trkpt lat="44.45406" lon="4.11386">
        <ele>461.69</ele>
        <time>2017-10-31T15:05:32Z</time>
      </trkpt>
      <trkpt lat="44.45405" lon="4.11412">
        <ele>462.69</ele>
        <time>2017-10-31T15:05:52Z</time>
      </trkpt>
      <trkpt lat="44.4541" lon="4.11437">
        <ele>461.69</ele>
        <time>2017-10-31T15:06:11Z</time>
      </trkpt>
      <trkpt lat="44.45398" lon="4.11457">
        <ele>461.69</ele>
        <time>2017-10-31T15:06:39Z</time>
      </trkpt>
      <trkpt lat="44.45383" lon="4.11472">
        <ele>460.69</ele>
        <time>2017-10-31T15:06:58Z</time>
      </trkpt>
      <trkpt lat="44.45373" lon="4.11494">
        <ele>456.69</ele>
        <time>2017-10-31T15:07:27Z</time>
      </trkpt>
      <trkpt lat="44.45364" lon="4.11516">
        <ele>451.72</ele>
        <time>2017-10-31T15:07:53Z</time>
      </trkpt>
      <trkpt lat="44.45357" lon="4.1152">
        <ele>444.69</ele>
        <time>2017-10-31T15:08:30Z</time>
      </trkpt>
      <trkpt lat="44.45343" lon="4.11536">
        <ele>448.02</ele>
        <time>2017-10-31T15:09:36Z</time>
      </trkpt>
      <trkpt lat="44.45325" lon="4.11531">
        <ele>437.29</ele>
        <time>2017-10-31T15:10:54Z</time>
      </trkpt>
      <trkpt lat="44.45318" lon="4.11507">
        <ele>434.76</ele>
        <time>2017-10-31T15:11:16Z</time>
      </trkpt>
      <trkpt lat="44.4531" lon="4.11484">
        <ele>434.69</ele>
        <time>2017-10-31T15:11:37Z</time>
      </trkpt>
      <trkpt lat="44.45296" lon="4.11468">
        <ele>435.68</ele>
        <time>2017-10-31T15:12:10Z</time>
      </trkpt>
      <trkpt lat="44.45277" lon="4.11471">
        <ele>433.69</ele>
        <time>2017-10-31T15:12:33Z</time>
      </trkpt>
      <trkpt lat="44.45261" lon="4.11482">
        <ele>427.77</ele>
        <time>2017-10-31T15:13:24Z</time>
      </trkpt>
      <trkpt lat="44.45243" lon="4.11487">
        <ele>424.78</ele>
        <time>2017-10-31T15:13:58Z</time>
      </trkpt>
      <trkpt lat="44.45225" lon="4.11484">
        <ele>419.78</ele>
        <time>2017-10-31T15:14:20Z</time>
      </trkpt>
      <trkpt lat="44.45207" lon="4.11477">
        <ele>414.99</ele>
        <time>2017-10-31T15:15:02Z</time>
      </trkpt>
      <trkpt lat="44.45188" lon="4.11477">
        <ele>412.99</ele>
        <time>2017-10-31T15:15:38Z</time>
      </trkpt>
      <trkpt lat="44.45171" lon="4.11466">
        <ele>403.7</ele>
        <time>2017-10-31T15:16:31Z</time>
      </trkpt>
      <trkpt lat="44.45161" lon="4.11444">
        <ele>399.69</ele>
        <time>2017-10-31T15:17:13Z</time>
      </trkpt>
      <trkpt lat="44.45152" lon="4.11422">
        <ele>395.99</ele>
        <time>2017-10-31T15:19:03Z</time>
      </trkpt>
      <trkpt lat="44.45137" lon="4.11408">
        <ele>391.7</ele>
        <time>2017-10-31T15:19:35Z</time>
      </trkpt>
      <trkpt lat="44.45135" lon="4.11381">
        <ele>382.1</ele>
        <time>2017-10-31T15:20:19Z</time>
      </trkpt>
      <trkpt lat="44.45141" lon="4.11357">
        <ele>379.41</ele>
        <time>2017-10-31T15:20:37Z</time>
      </trkpt>
      <trkpt lat="44.45148" lon="4.11334">
        <ele>376.68</ele>
        <time>2017-10-31T15:20:57Z</time>
      </trkpt>
      <trkpt lat="44.45155" lon="4.11309">
        <ele>372</ele>
        <time>2017-10-31T15:21:20Z</time>
      </trkpt>
      <trkpt lat="44.45165" lon="4.11289">
        <ele>371.99</ele>
        <time>2017-10-31T15:21:36Z</time>
      </trkpt>
      <trkpt lat="44.45173" lon="4.11265">
        <ele>374.27</ele>
        <time>2017-10-31T15:21:53Z</time>
      </trkpt>
      <trkpt lat="44.45159" lon="4.1128">
        <ele>375.69</ele>
        <time>2017-10-31T15:22:31Z</time>
      </trkpt>
      <trkpt lat="44.45142" lon="4.11293">
        <ele>373.72</ele>
        <time>2017-10-31T15:22:59Z</time>
      </trkpt>
      <trkpt lat="44.45132" lon="4.11315">
        <ele>370.99</ele>
        <time>2017-10-31T15:23:20Z</time>
      </trkpt>
      <trkpt lat="44.4512" lon="4.11334">
        <ele>365.79</ele>
        <time>2017-10-31T15:23:52Z</time>
      </trkpt>
      <trkpt lat="44.45104" lon="4.11347">
        <ele>358.78</ele>
        <time>2017-10-31T15:24:17Z</time>
      </trkpt>
      <trkpt lat="44.45093" lon="4.11367">
        <ele>354.69</ele>
        <time>2017-10-31T15:24:48Z</time>
      </trkpt>
      <trkpt lat="44.4508" lon="4.11387">
        <ele>350.99</ele>
        <time>2017-10-31T15:25:08Z</time>
      </trkpt>
      <trkpt lat="44.45068" lon="4.11406">
        <ele>347.99</ele>
        <time>2017-10-31T15:25:34Z</time>
      </trkpt>
      <trkpt lat="44.45059" lon="4.1143">
        <ele>341.79</ele>
        <time>2017-10-31T15:25:53Z</time>
      </trkpt>
      <trkpt lat="44.4505" lon="4.11452">
        <ele>338.68</ele>
        <time>2017-10-31T15:26:10Z</time>
      </trkpt>
      <trkpt lat="44.45037" lon="4.11471">
        <ele>337.69</ele>
        <time>2017-10-31T15:26:37Z</time>
      </trkpt>
      <trkpt lat="44.45024" lon="4.11489">
        <ele>334.99</ele>
        <time>2017-10-31T15:27:03Z</time>
      </trkpt>
      <trkpt lat="44.4501" lon="4.11508">
        <ele>330</ele>
        <time>2017-10-31T15:27:20Z</time>
      </trkpt>
      <trkpt lat="44.44996" lon="4.11525">
        <ele>327.72</ele>
        <time>2017-10-31T15:27:39Z</time>
      </trkpt>
      <trkpt lat="44.44984" lon="4.11545">
        <ele>327.78</ele>
        <time>2017-10-31T15:27:56Z</time>
      </trkpt>
      <trkpt lat="44.44971" lon="4.11563">
        <ele>326.99</ele>
        <time>2017-10-31T15:28:12Z</time>
      </trkpt>
      <trkpt lat="44.44959" lon="4.11582">
        <ele>326.69</ele>
        <time>2017-10-31T15:28:30Z</time>
      </trkpt>
      <trkpt lat="44.44946" lon="4.11601">
        <ele>331.3</ele>
        <time>2017-10-31T15:28:44Z</time>
      </trkpt>
      <trkpt lat="44.44931" lon="4.11617">
        <ele>332.72</ele>
        <time>2017-10-31T15:29:39Z</time>
      </trkpt>
      <trkpt lat="44.44913" lon="4.11623">
        <ele>329.78</ele>
        <time>2017-10-31T15:29:59Z</time>
      </trkpt>
      <trkpt lat="44.44895" lon="4.11631">
        <ele>331.38</ele>
        <time>2017-10-31T15:30:17Z</time>
      </trkpt>
      <trkpt lat="44.44877" lon="4.11637">
        <ele>329.69</ele>
        <time>2017-10-31T15:30:37Z</time>
      </trkpt>
      <trkpt lat="44.44858" lon="4.11641">
        <ele>330.66</ele>
        <time>2017-10-31T15:30:55Z</time>
      </trkpt>
      <trkpt lat="44.44842" lon="4.11655">
        <ele>326.69</ele>
        <time>2017-10-31T15:31:16Z</time>
      </trkpt>
      <trkpt lat="44.44827" lon="4.11669">
        <ele>323.72</ele>
        <time>2017-10-31T15:31:42Z</time>
      </trkpt>
      <trkpt lat="44.44811" lon="4.11681">
        <ele>320.99</ele>
        <time>2017-10-31T15:32:12Z</time>
      </trkpt>
      <trkpt lat="44.44796" lon="4.11695">
        <ele>319.69</ele>
        <time>2017-10-31T15:32:31Z</time>
      </trkpt>
      <trkpt lat="44.44778" lon="4.11705">
        <ele>317.78</ele>
        <time>2017-10-31T15:32:51Z</time>
      </trkpt>
      <trkpt lat="44.44762" lon="4.11717">
        <ele>316.69</ele>
        <time>2017-10-31T15:33:10Z</time>
      </trkpt>
      <trkpt lat="44.44745" lon="4.11727">
        <ele>314.71</ele>
        <time>2017-10-31T15:33:27Z</time>
      </trkpt>
      <trkpt lat="44.44728" lon="4.1174">
        <ele>314.69</ele>
        <time>2017-10-31T15:33:45Z</time>
      </trkpt>
      <trkpt lat="44.44711" lon="4.11748">
        <ele>313.72</ele>
        <time>2017-10-31T15:34:03Z</time>
      </trkpt>
      <trkpt lat="44.44693" lon="4.11757">
        <ele>312.69</ele>
        <time>2017-10-31T15:34:21Z</time>
      </trkpt>
      <trkpt lat="44.44675" lon="4.1176">
        <ele>311.99</ele>
        <time>2017-10-31T15:34:39Z</time>
      </trkpt>
      <trkpt lat="44.44656" lon="4.11762">
        <ele>309.99</ele>
        <time>2017-10-31T15:34:58Z</time>
      </trkpt>
      <trkpt lat="44.44648" lon="4.11785">
        <ele>311.39</ele>
        <time>2017-10-31T15:35:14Z</time>
      </trkpt>
      <trkpt lat="44.44634" lon="4.11803">
        <ele>307.29</ele>
        <time>2017-10-31T15:35:44Z</time>
      </trkpt>
      <trkpt lat="44.44618" lon="4.11815">
        <ele>302.69</ele>
        <time>2017-10-31T15:36:09Z</time>
      </trkpt>
      <trkpt lat="44.44601" lon="4.11823">
        <ele>298.78</ele>
        <time>2017-10-31T15:36:40Z</time>
      </trkpt>
      <trkpt lat="44.44585" lon="4.11837">
        <ele>295.69</ele>
        <time>2017-10-31T15:37:27Z</time>
      </trkpt>
      <trkpt lat="44.44568" lon="4.11849">
        <ele>289.72</ele>
        <time>2017-10-31T15:37:48Z</time>
      </trkpt>
      <trkpt lat="44.44551" lon="4.11837">
        <ele>286.69</ele>
        <time>2017-10-31T15:38:15Z</time>
      </trkpt>
      <trkpt lat="44.44545" lon="4.11813">
        <ele>284.69</ele>
        <time>2017-10-31T15:38:39Z</time>
      </trkpt>
      <trkpt lat="44.44533" lon="4.11832">
        <ele>274.6</ele>
        <time>2017-10-31T15:42:02Z</time>
      </trkpt>
      <trkpt lat="44.44532" lon="4.11858">
        <ele>273.39</ele>
        <time>2017-10-31T15:43:50Z</time>
      </trkpt>
      <trkpt lat="44.44528" lon="4.11883">
        <ele>273.7</ele>
        <time>2017-10-31T15:44:15Z</time>
      </trkpt>
      <trkpt lat="44.44516" lon="4.11902">
        <ele>269.69</ele>
        <time>2017-10-31T15:44:40Z</time>
      </trkpt>
      <trkpt lat="44.44505" lon="4.11924">
        <ele>267.69</ele>
        <time>2017-10-31T15:45:03Z</time>
      </trkpt>
      <trkpt lat="44.44499" lon="4.11949">
        <ele>268.71</ele>
        <time>2017-10-31T15:45:22Z</time>
      </trkpt>
      <trkpt lat="44.44499" lon="4.11975">
        <ele>266.99</ele>
        <time>2017-10-31T15:45:44Z</time>
      </trkpt>
      <trkpt lat="44.44514" lon="4.11989">
        <ele>258.69</ele>
        <time>2017-10-31T15:46:13Z</time>
      </trkpt>
      <trkpt lat="44.44533" lon="4.11993">
        <ele>254.78</ele>
        <time>2017-10-31T15:46:35Z</time>
      </trkpt>
      <trkpt lat="44.44551" lon="4.11997">
        <ele>254.78</ele>
        <time>2017-10-31T15:46:54Z</time>
      </trkpt>
      <trkpt lat="44.44568" lon="4.12004">
        <ele>254.7</ele>
        <time>2017-10-31T15:47:14Z</time>
      </trkpt>
      <trkpt lat="44.44587" lon="4.12003">
        <ele>251.69</ele>
        <time>2017-10-31T15:47:31Z</time>
      </trkpt>
      <trkpt lat="44.44605" lon="4.12003">
        <ele>247.66</ele>
        <time>2017-10-31T15:47:53Z</time>
      </trkpt>
      <trkpt lat="44.44622" lon="4.12011">
        <ele>243.78</ele>
        <time>2017-10-31T15:48:26Z</time>
      </trkpt>
      <trkpt lat="44.4464" lon="4.12007">
        <ele>244.75</ele>
        <time>2017-10-31T15:48:46Z</time>
      </trkpt>
      <trkpt lat="44.44626" lon="4.12022">
        <ele>242.72</ele>
        <time>2017-10-31T15:50:15Z</time>
      </trkpt>
      <trkpt lat="44.44613" lon="4.12041">
        <ele>243.69</ele>
        <time>2017-10-31T15:50:42Z</time>
      </trkpt>
      <trkpt lat="44.44615" lon="4.12066">
        <ele>241.39</ele>
        <time>2017-10-31T15:51:07Z</time>
      </trkpt>
      <trkpt lat="44.4462" lon="4.12091">
        <ele>239.69</ele>
        <time>2017-10-31T15:51:31Z</time>
      </trkpt>
      <trkpt lat="44.44614" lon="4.12114">
        <ele>226.99</ele>
        <time>2017-10-31T15:52:30Z</time>
      </trkpt>
      <trkpt lat="44.44627" lon="4.12132">
        <ele>225.69</ele>
        <time>2017-10-31T15:53:00Z</time>
      </trkpt>
      <trkpt lat="44.44642" lon="4.12147">
        <ele>222.78</ele>
        <time>2017-10-31T15:53:32Z</time>
      </trkpt>
      <trkpt lat="44.44627" lon="4.12166">
        <ele>219.99</ele>
        <time>2017-10-31T15:54:07Z</time>
      </trkpt>
      <trkpt lat="44.44623" lon="4.12191">
        <ele>220.63</ele>
        <time>2017-10-31T15:54:28Z</time>
      </trkpt>
      <trkpt lat="44.44619" lon="4.12217">
        <ele>221.69</ele>
        <time>2017-10-31T15:54:53Z</time>
      </trkpt>
      <trkpt lat="44.44616" lon="4.12242">
        <ele>226.69</ele>
        <time>2017-10-31T15:55:16Z</time>
      </trkpt>
      <trkpt lat="44.44601" lon="4.12259">
        <ele>224.99</ele>
        <time>2017-10-31T15:55:44Z</time>
      </trkpt>
      <trkpt lat="44.4459" lon="4.1228">
        <ele>221.7</ele>
        <time>2017-10-31T15:56:06Z</time>
      </trkpt>
      <trkpt lat="44.44579" lon="4.12301">
        <ele>225.51</ele>
        <time>2017-10-31T15:56:23Z</time>
      </trkpt>
      <trkpt lat="44.44571" lon="4.12326">
        <ele>228.69</ele>
        <time>2017-10-31T15:56:45Z</time>
      </trkpt>
      <trkpt lat="44.44563" lon="4.12351">
        <ele>226.7</ele>
        <time>2017-10-31T15:57:01Z</time>
      </trkpt>
      <trkpt lat="44.44566" lon="4.12376">
        <ele>227.69</ele>
        <time>2017-10-31T15:57:19Z</time>
      </trkpt>
      <trkpt lat="44.4456" lon="4.12401">
        <ele>229.69</ele>
        <time>2017-10-31T15:57:41Z</time>
      </trkpt>
      <trkpt lat="44.44577" lon="4.12409">
        <ele>234.69</ele>
        <time>2017-10-31T15:58:04Z</time>
      </trkpt>
      <trkpt lat="44.44591" lon="4.12426">
        <ele>239.66</ele>
        <time>2017-10-31T15:58:29Z</time>
      </trkpt>
      <trkpt lat="44.44603" lon="4.12445">
        <ele>238.98</ele>
        <time>2017-10-31T15:58:51Z</time>
      </trkpt>
      <trkpt lat="44.44617" lon="4.12462">
        <ele>239.69</ele>
        <time>2017-10-31T15:59:07Z</time>
      </trkpt>
      <trkpt lat="44.44632" lon="4.12477">
        <ele>239.6</ele>
        <time>2017-10-31T15:59:22Z</time>
      </trkpt>
      <trkpt lat="44.4465" lon="4.12482">
        <ele>237.72</ele>
        <time>2017-10-31T15:59:39Z</time>
      </trkpt>
      <trkpt lat="44.44667" lon="4.1249">
        <ele>237.7</ele>
        <time>2017-10-31T15:59:58Z</time>
      </trkpt>
      <trkpt lat="44.44685" lon="4.12499">
        <ele>236.69</ele>
        <time>2017-10-31T16:00:18Z</time>
      </trkpt>
      <trkpt lat="44.44701" lon="4.12513">
        <ele>237.69</ele>
        <time>2017-10-31T16:00:37Z</time>
      </trkpt>
      <trkpt lat="44.44715" lon="4.12529">
        <ele>240.6</ele>
        <time>2017-10-31T16:00:51Z</time>
      </trkpt>
      <trkpt lat="44.4473" lon="4.12544">
        <ele>241.69</ele>
        <time>2017-10-31T16:01:09Z</time>
      </trkpt>
      <trkpt lat="44.44748" lon="4.12555">
        <ele>240</ele>
        <time>2017-10-31T16:01:25Z</time>
      </trkpt>
      <trkpt lat="44.44763" lon="4.12572">
        <ele>238.69</ele>
        <time>2017-10-31T16:01:44Z</time>
      </trkpt>
      <trkpt lat="44.44779" lon="4.12584">
        <ele>238.39</ele>
        <time>2017-10-31T16:02:00Z</time>
      </trkpt>
      <trkpt lat="44.44798" lon="4.12591">
        <ele>236.72</ele>
        <time>2017-10-31T16:02:15Z</time>
      </trkpt>
      <trkpt lat="44.44817" lon="4.12592">
        <ele>232.99</ele>
        <time>2017-10-31T16:02:34Z</time>
      </trkpt>
      <trkpt lat="44.44836" lon="4.12588">
        <ele>232.68</ele>
        <time>2017-10-31T16:02:52Z</time>
      </trkpt>
      <trkpt lat="44.44853" lon="4.12579">
        <ele>230.69</ele>
        <time>2017-10-31T16:03:09Z</time>
      </trkpt>
    </trkseg>
  </trk>
</gpx>